sensor_id;sensor_type;location;lat;lon;timestamp;temperature;humidity
20366;DHT22;10341;49.894;8.822;2023-12-20T00:03:28;5.50;99.90
20366;DHT22;10341;49.894;8.822;2023-12-20T00:08:47;5.50;99.90
20366;DHT22;10341;49.894;8.822;2023-12-20T00:14:07;5.50;99.90
20366;DHT22;10341;49.894;8.822;2023-12-20T00:19:26;5.40;99.90
20366;DHT22;10341;49.894;8.822;2023-12-20T00:24:45;5.40;99.90
20366;DHT22;10341;49.894;8.822;2023-12-20T00:30:05;5.40;99.90
20366;DHT22;10341;49.894;8.822;2023-12-20T00:35:24;5.40;99.90
20366;DHT22;10341;49.894;8.822;2023-12-20T00:40:44;5.40;99.90
20366;DHT22;10341;49.894;8.822;2023-12-20T00:46:03;5.30;99.90
20366;DHT22;10341;49.894;8.822;2023-12-20T00:51:23;5.40;99.90
20366;DHT22;10341;49.894;8.822;2023-12-20T00:56:42;5.30;99.90
20366;DHT22;10341;49.894;8.822;2023-12-20T01:02:01;5.30;99.90
20366;DHT22;10341;49.894;8.822;2023-12-20T01:07:21;5.30;99.90
20366;DHT22;10341;49.894;8.822;2023-12-20T01:12:40;5.30;99.90
20366;DHT22;10341;49.894;8.822;2023-12-20T01:17:59;5.30;99.90
20366;DHT22;10341;49.894;8.822;2023-12-20T01:23:19;5.30;99.90
20366;DHT22;10341;49.894;8.822;2023-12-20T01:28:38;5.30;99.90
20366;DHT22;10341;49.894;8.822;2023-12-20T01:33:57;5.30;99.90
20366;DHT22;10341;49.894;8.822;2023-12-20T01:39:17;5.30;99.90
20366;DHT22;10341;49.894;8.822;2023-12-20T01:44:36;5.20;99.90
20366;DHT22;10341;49.894;8.822;2023-12-20T01:49:56;5.20;99.90
20366;DHT22;10341;49.894;8.822;2023-12-20T01:55:15;5.20;99.90
20366;DHT22;10341;49.894;8.822;2023-12-20T02:00:36;5.20;99.90
20366;DHT22;10341;49.894;8.822;2023-12-20T02:05:55;5.20;99.90
20366;DHT22;10341;49.894;8.822;2023-12-20T02:11:15;5.20;99.90
20366;DHT22;10341;49.894;8.822;2023-12-20T02:16:34;5.10;99.90
20366;DHT22;10341;49.894;8.822;2023-12-20T02:22:09;5.10;99.90
20366;DHT22;10341;49.894;8.822;2023-12-20T02:27:29;5.10;99.90
20366;DHT22;10341;49.894;8.822;2023-12-20T02:32:49;5.10;99.90
20366;DHT22;10341;49.894;8.822;2023-12-20T02:38:08;5.10;99.90
20366;DHT22;10341;49.894;8.822;2023-12-20T02:43:27;5.10;99.90
20366;DHT22;10341;49.894;8.822;2023-12-20T02:48:46;5.10;99.90
20366;DHT22;10341;49.894;8.822;2023-12-20T02:54:06;5.10;99.90
20366;DHT22;10341;49.894;8.822;2023-12-20T02:59:25;5.10;99.90
20366;DHT22;10341;49.894;8.822;2023-12-20T03:04:44;5.10;99.90
20366;DHT22;10341;49.894;8.822;2023-12-20T03:10:04;5.10;99.90
20366;DHT22;10341;49.894;8.822;2023-12-20T03:15:23;5.10;99.90
20366;DHT22;10341;49.894;8.822;2023-12-20T03:20:43;5.10;99.90
20366;DHT22;10341;49.894;8.822;2023-12-20T03:26:02;5.10;99.90
20366;DHT22;10341;49.894;8.822;2023-12-20T03:31:22;5.20;99.90
20366;DHT22;10341;49.894;8.822;2023-12-20T03:36:41;5.20;99.90
20366;DHT22;10341;49.894;8.822;2023-12-20T03:42:00;5.20;99.90
20366;DHT22;10341;49.894;8.822;2023-12-20T03:47:19;5.20;99.90
20366;DHT22;10341;49.894;8.822;2023-12-20T03:52:39;5.30;99.90
20366;DHT22;10341;49.894;8.822;2023-12-20T03:57:58;5.30;99.90
20366;DHT22;10341;49.894;8.822;2023-12-20T04:03:17;5.30;99.90
20366;DHT22;10341;49.894;8.822;2023-12-20T04:08:37;5.30;99.90
20366;DHT22;10341;49.894;8.822;2023-12-20T04:13:56;5.40;99.90
20366;DHT22;10341;49.894;8.822;2023-12-20T04:19:15;5.40;99.90
20366;DHT22;10341;49.894;8.822;2023-12-20T04:24:34;5.40;99.90
20366;DHT22;10341;49.894;8.822;2023-12-20T04:29:54;5.40;99.90
20366;DHT22;10341;49.894;8.822;2023-12-20T04:35:13;5.50;99.90
20366;DHT22;10341;49.894;8.822;2023-12-20T04:40:32;5.50;99.90
20366;DHT22;10341;49.894;8.822;2023-12-20T04:45:52;5.50;99.90
20366;DHT22;10341;49.894;8.822;2023-12-20T04:51:11;5.50;99.90
20366;DHT22;10341;49.894;8.822;2023-12-20T04:56:30;5.50;99.90
20366;DHT22;10341;49.894;8.822;2023-12-20T05:01:49;5.50;99.90
20366;DHT22;10341;49.894;8.822;2023-12-20T05:07:08;5.50;99.90
20366;DHT22;10341;49.894;8.822;2023-12-20T05:12:27;5.60;99.90
20366;DHT22;10341;49.894;8.822;2023-12-20T05:17:46;5.60;99.90
20366;DHT22;10341;49.894;8.822;2023-12-20T05:23:06;5.50;99.90
20366;DHT22;10341;49.894;8.822;2023-12-20T05:28:25;5.50;99.90
20366;DHT22;10341;49.894;8.822;2023-12-20T05:33:44;5.40;99.90
20366;DHT22;10341;49.894;8.822;2023-12-20T05:39:03;5.40;99.90
20366;DHT22;10341;49.894;8.822;2023-12-20T05:44:23;5.50;99.90
20366;DHT22;10341;49.894;8.822;2023-12-20T05:49:43;5.60;99.90
20366;DHT22;10341;49.894;8.822;2023-12-20T05:55:03;5.50;99.90
20366;DHT22;10341;49.894;8.822;2023-12-20T06:00:22;5.50;99.90
20366;DHT22;10341;49.894;8.822;2023-12-20T06:05:41;5.30;99.90
20366;DHT22;10341;49.894;8.822;2023-12-20T06:11:00;5.20;99.90
20366;DHT22;10341;49.894;8.822;2023-12-20T06:16:20;5.00;99.90
20366;DHT22;10341;49.894;8.822;2023-12-20T06:21:39;4.80;99.90
20366;DHT22;10341;49.894;8.822;2023-12-20T06:26:58;4.60;99.90
20366;DHT22;10341;49.894;8.822;2023-12-20T06:32:17;4.60;99.90
20366;DHT22;10341;49.894;8.822;2023-12-20T06:37:37;4.40;99.90
20366;DHT22;10341;49.894;8.822;2023-12-20T06:42:56;4.30;99.90
20366;DHT22;10341;49.894;8.822;2023-12-20T06:48:15;4.30;99.90
20366;DHT22;10341;49.894;8.822;2023-12-20T06:53:34;4.20;99.90
20366;DHT22;10341;49.894;8.822;2023-12-20T06:58:53;4.20;99.90
20366;DHT22;10341;49.894;8.822;2023-12-20T07:04:12;4.10;99.90
20366;DHT22;10341;49.894;8.822;2023-12-20T07:09:32;4.10;99.90
20366;DHT22;10341;49.894;8.822;2023-12-20T07:14:51;4.10;99.90
20366;DHT22;10341;49.894;8.822;2023-12-20T07:20:11;4.10;99.90
20366;DHT22;10341;49.894;8.822;2023-12-20T07:25:30;4.00;99.90
20366;DHT22;10341;49.894;8.822;2023-12-20T07:30:51;4.00;99.90
20366;DHT22;10341;49.894;8.822;2023-12-20T07:36:12;4.10;99.90
20366;DHT22;10341;49.894;8.822;2023-12-20T07:41:31;4.10;99.90
20366;DHT22;10341;49.894;8.822;2023-12-20T07:46:50;4.30;99.90
20366;DHT22;10341;49.894;8.822;2023-12-20T07:52:09;4.50;99.90
20366;DHT22;10341;49.894;8.822;2023-12-20T07:57:29;5.40;99.90
20366;DHT22;10341;49.894;8.822;2023-12-20T08:02:49;5.80;99.90
20366;DHT22;10341;49.894;8.822;2023-12-20T08:08:08;5.50;99.90
20366;DHT22;10341;49.894;8.822;2023-12-20T08:13:28;5.90;99.90
20366;DHT22;10341;49.894;8.822;2023-12-20T08:18:47;7.00;99.90
20366;DHT22;10341;49.894;8.822;2023-12-20T08:24:07;6.60;99.90
20366;DHT22;10341;49.894;8.822;2023-12-20T08:29:26;6.10;99.90
20366;DHT22;10341;49.894;8.822;2023-12-20T08:34:45;5.80;99.90
20366;DHT22;10341;49.894;8.822;2023-12-20T08:40:05;5.70;99.90
20366;DHT22;10341;49.894;8.822;2023-12-20T08:45:25;5.80;99.90
20366;DHT22;10341;49.894;8.822;2023-12-20T08:50:44;5.80;99.90
20366;DHT22;10341;49.894;8.822;2023-12-20T08:56:04;5.80;99.90
20366;DHT22;10341;49.894;8.822;2023-12-20T09:01:24;5.80;99.90
20366;DHT22;10341;49.894;8.822;2023-12-20T09:06:43;5.90;99.90
20366;DHT22;10341;49.894;8.822;2023-12-20T09:12:03;6.00;99.90
20366;DHT22;10341;49.894;8.822;2023-12-20T09:17:23;6.20;99.90
20366;DHT22;10341;49.894;8.822;2023-12-20T09:22:42;6.10;99.90
20366;DHT22;10341;49.894;8.822;2023-12-20T09:28:02;6.10;99.90
20366;DHT22;10341;49.894;8.822;2023-12-20T09:33:22;6.10;99.90
20366;DHT22;10341;49.894;8.822;2023-12-20T09:38:41;6.20;99.90
20366;DHT22;10341;49.894;8.822;2023-12-20T09:44:02;6.20;99.90
20366;DHT22;10341;49.894;8.822;2023-12-20T09:49:22;6.30;99.90
20366;DHT22;10341;49.894;8.822;2023-12-20T09:54:43;6.40;99.90
20366;DHT22;10341;49.894;8.822;2023-12-20T10:00:03;6.50;99.90
20366;DHT22;10341;49.894;8.822;2023-12-20T10:05:32;6.50;99.90
20366;DHT22;10341;49.894;8.822;2023-12-20T10:10:52;6.40;99.90
20366;DHT22;10341;49.894;8.822;2023-12-20T10:16:11;6.40;99.90
20366;DHT22;10341;49.894;8.822;2023-12-20T10:21:31;6.40;99.90
20366;DHT22;10341;49.894;8.822;2023-12-20T10:27:07;6.40;99.90
20366;DHT22;10341;49.894;8.822;2023-12-20T10:32:27;6.50;99.90
20366;DHT22;10341;49.894;8.822;2023-12-20T10:37:47;6.60;99.90
20366;DHT22;10341;49.894;8.822;2023-12-20T10:43:08;6.80;99.90
20366;DHT22;10341;49.894;8.822;2023-12-20T10:48:29;6.90;99.90
20366;DHT22;10341;49.894;8.822;2023-12-20T10:53:52;6.90;99.90
20366;DHT22;10341;49.894;8.822;2023-12-20T10:59:13;6.90;99.90
20366;DHT22;10341;49.894;8.822;2023-12-20T11:04:54;7.10;99.90
20366;DHT22;10341;49.894;8.822;2023-12-20T11:10:49;7.40;99.90
20366;DHT22;10341;49.894;8.822;2023-12-20T11:16:10;7.50;99.90
20366;DHT22;10341;49.894;8.822;2023-12-20T11:21:29;7.90;99.90
20366;DHT22;10341;49.894;8.822;2023-12-20T11:26:48;8.70;99.90
20366;DHT22;10341;49.894;8.822;2023-12-20T11:32:28;10.50;99.90
20366;DHT22;10341;49.894;8.822;2023-12-20T11:37:47;12.00;99.90
20366;DHT22;10341;49.894;8.822;2023-12-20T11:43:07;12.20;99.90
20366;DHT22;10341;49.894;8.822;2023-12-20T11:48:27;11.50;99.90
20366;DHT22;10341;49.894;8.822;2023-12-20T11:53:51;9.80;99.90
20366;DHT22;10341;49.894;8.822;2023-12-20T11:59:12;9.90;99.90
20366;DHT22;10341;49.894;8.822;2023-12-20T12:04:31;9.90;99.90
20366;DHT22;10341;49.894;8.822;2023-12-20T12:09:51;9.00;99.90
20366;DHT22;10341;49.894;8.822;2023-12-20T12:15:11;8.50;99.90
20366;DHT22;10341;49.894;8.822;2023-12-20T12:20:30;8.00;99.90
20366;DHT22;10341;49.894;8.822;2023-12-20T12:25:50;7.80;99.90
20366;DHT22;10341;49.894;8.822;2023-12-20T12:31:13;7.50;99.90
20366;DHT22;10341;49.894;8.822;2023-12-20T12:36:34;7.50;99.90
20366;DHT22;10341;49.894;8.822;2023-12-20T12:41:54;7.40;99.90
20366;DHT22;10341;49.894;8.822;2023-12-20T12:47:13;7.60;99.90
20366;DHT22;10341;49.894;8.822;2023-12-20T12:52:32;7.90;99.90
20366;DHT22;10341;49.894;8.822;2023-12-20T12:57:51;8.30;99.90
20366;DHT22;10341;49.894;8.822;2023-12-20T13:03:11;8.70;99.90
20366;DHT22;10341;49.894;8.822;2023-12-20T13:08:30;8.60;99.90
20366;DHT22;10341;49.894;8.822;2023-12-20T13:13:49;8.30;99.90
20366;DHT22;10341;49.894;8.822;2023-12-20T13:19:10;8.30;99.90
20366;DHT22;10341;49.894;8.822;2023-12-20T13:24:29;8.30;99.90
20366;DHT22;10341;49.894;8.822;2023-12-20T13:29:48;8.20;99.90
20366;DHT22;10341;49.894;8.822;2023-12-20T13:35:08;8.10;99.90
20366;DHT22;10341;49.894;8.822;2023-12-20T13:40:27;8.20;99.90
20366;DHT22;10341;49.894;8.822;2023-12-20T13:45:48;8.20;99.90
20366;DHT22;10341;49.894;8.822;2023-12-20T13:51:07;8.10;99.90
20366;DHT22;10341;49.894;8.822;2023-12-20T13:56:26;7.90;99.90
20366;DHT22;10341;49.894;8.822;2023-12-20T14:01:46;7.70;99.90
20366;DHT22;10341;49.894;8.822;2023-12-20T14:07:05;7.60;99.90
20366;DHT22;10341;49.894;8.822;2023-12-20T14:12:26;7.70;99.90
20366;DHT22;10341;49.894;8.822;2023-12-20T14:17:45;7.60;99.90
20366;DHT22;10341;49.894;8.822;2023-12-20T14:23:05;7.60;99.90
20366;DHT22;10341;49.894;8.822;2023-12-20T14:28:24;7.50;99.90
20366;DHT22;10341;49.894;8.822;2023-12-20T14:33:43;7.50;99.90
20366;DHT22;10341;49.894;8.822;2023-12-20T14:39:02;7.40;99.90
20366;DHT22;10341;49.894;8.822;2023-12-20T14:44:22;7.30;99.90
20366;DHT22;10341;49.894;8.822;2023-12-20T14:49:42;7.30;99.90
20366;DHT22;10341;49.894;8.822;2023-12-20T14:55:01;7.30;99.90
20366;DHT22;10341;49.894;8.822;2023-12-20T15:00:23;7.20;99.90
20366;DHT22;10341;49.894;8.822;2023-12-20T15:05:43;7.20;99.90
20366;DHT22;10341;49.894;8.822;2023-12-20T15:11:03;7.20;99.90
20366;DHT22;10341;49.894;8.822;2023-12-20T15:16:23;7.20;99.90
20366;DHT22;10341;49.894;8.822;2023-12-20T15:21:42;7.10;99.90
20366;DHT22;10341;49.894;8.822;2023-12-20T15:27:03;7.10;99.90
20366;DHT22;10341;49.894;8.822;2023-12-20T15:32:22;7.00;99.90
20366;DHT22;10341;49.894;8.822;2023-12-20T15:37:42;7.00;99.90
20366;DHT22;10341;49.894;8.822;2023-12-20T15:43:02;6.90;99.90
20366;DHT22;10341;49.894;8.822;2023-12-20T15:48:21;7.00;99.90
20366;DHT22;10341;49.894;8.822;2023-12-20T15:53:40;6.90;99.90
20366;DHT22;10341;49.894;8.822;2023-12-20T15:58:59;6.90;99.90
20366;DHT22;10341;49.894;8.822;2023-12-20T16:04:19;6.90;99.90
20366;DHT22;10341;49.894;8.822;2023-12-20T16:09:38;6.90;99.90
20366;DHT22;10341;49.894;8.822;2023-12-20T16:14:58;6.90;99.90
20366;DHT22;10341;49.894;8.822;2023-12-20T16:20:17;6.90;99.90
20366;DHT22;10341;49.894;8.822;2023-12-20T16:25:36;6.90;99.90
20366;DHT22;10341;49.894;8.822;2023-12-20T16:30:56;6.90;99.90
20366;DHT22;10341;49.894;8.822;2023-12-20T16:36:16;6.90;99.90
20366;DHT22;10341;49.894;8.822;2023-12-20T16:41:35;6.90;99.90
20366;DHT22;10341;49.894;8.822;2023-12-20T16:46:54;6.90;99.90
20366;DHT22;10341;49.894;8.822;2023-12-20T16:52:14;6.90;99.90
20366;DHT22;10341;49.894;8.822;2023-12-20T16:57:33;6.90;99.90
20366;DHT22;10341;49.894;8.822;2023-12-20T17:02:52;7.00;99.90
20366;DHT22;10341;49.894;8.822;2023-12-20T17:08:11;7.00;99.90
20366;DHT22;10341;49.894;8.822;2023-12-20T17:13:31;7.00;99.90
20366;DHT22;10341;49.894;8.822;2023-12-20T17:18:50;7.00;99.90
20366;DHT22;10341;49.894;8.822;2023-12-20T17:24:09;7.00;99.90
20366;DHT22;10341;49.894;8.822;2023-12-20T17:29:28;7.00;99.90
20366;DHT22;10341;49.894;8.822;2023-12-20T17:34:48;6.90;99.90
20366;DHT22;10341;49.894;8.822;2023-12-20T17:40:08;7.00;99.90
20366;DHT22;10341;49.894;8.822;2023-12-20T17:45:27;7.00;99.90
20366;DHT22;10341;49.894;8.822;2023-12-20T17:50:48;7.00;99.90
20366;DHT22;10341;49.894;8.822;2023-12-20T17:56:07;7.00;99.90
20366;DHT22;10341;49.894;8.822;2023-12-20T18:01:26;7.10;99.90
20366;DHT22;10341;49.894;8.822;2023-12-20T18:06:46;7.10;99.90
20366;DHT22;10341;49.894;8.822;2023-12-20T18:12:05;7.10;99.90
20366;DHT22;10341;49.894;8.822;2023-12-20T18:17:26;7.10;99.90
20366;DHT22;10341;49.894;8.822;2023-12-20T18:22:46;7.10;99.90
20366;DHT22;10341;49.894;8.822;2023-12-20T18:28:05;7.10;99.90
20366;DHT22;10341;49.894;8.822;2023-12-20T18:33:24;7.10;99.90
20366;DHT22;10341;49.894;8.822;2023-12-20T18:38:44;7.20;99.90
20366;DHT22;10341;49.894;8.822;2023-12-20T18:44:03;7.10;99.90
20366;DHT22;10341;49.894;8.822;2023-12-20T18:49:22;7.10;99.90
20366;DHT22;10341;49.894;8.822;2023-12-20T18:54:42;7.10;99.90
20366;DHT22;10341;49.894;8.822;2023-12-20T19:00:01;7.20;99.90
20366;DHT22;10341;49.894;8.822;2023-12-20T19:05:21;7.20;99.90
20366;DHT22;10341;49.894;8.822;2023-12-20T19:10:41;7.20;99.90
20366;DHT22;10341;49.894;8.822;2023-12-20T19:16:01;7.20;99.90
20366;DHT22;10341;49.894;8.822;2023-12-20T19:21:21;7.30;99.90
20366;DHT22;10341;49.894;8.822;2023-12-20T19:26:40;7.30;99.90
20366;DHT22;10341;49.894;8.822;2023-12-20T19:32:00;7.30;99.90
20366;DHT22;10341;49.894;8.822;2023-12-20T19:37:19;7.30;99.90
20366;DHT22;10341;49.894;8.822;2023-12-20T19:42:38;7.40;99.90
20366;DHT22;10341;49.894;8.822;2023-12-20T19:47:58;7.40;99.90
20366;DHT22;10341;49.894;8.822;2023-12-20T19:53:17;7.30;99.90
20366;DHT22;10341;49.894;8.822;2023-12-20T19:58:36;7.30;99.90
20366;DHT22;10341;49.894;8.822;2023-12-20T20:03:56;7.30;99.90
20366;DHT22;10341;49.894;8.822;2023-12-20T20:09:15;7.30;99.90
20366;DHT22;10341;49.894;8.822;2023-12-20T20:14:34;7.30;99.90
20366;DHT22;10341;49.894;8.822;2023-12-20T20:19:53;7.30;99.90
20366;DHT22;10341;49.894;8.822;2023-12-20T20:25:14;7.30;99.90
20366;DHT22;10341;49.894;8.822;2023-12-20T20:30:33;7.20;99.90
20366;DHT22;10341;49.894;8.822;2023-12-20T20:35:52;7.30;99.90
20366;DHT22;10341;49.894;8.822;2023-12-20T20:41:11;7.20;99.90
20366;DHT22;10341;49.894;8.822;2023-12-20T20:46:31;7.20;99.90
20366;DHT22;10341;49.894;8.822;2023-12-20T20:51:50;7.30;99.90
20366;DHT22;10341;49.894;8.822;2023-12-20T20:57:10;7.30;99.90
20366;DHT22;10341;49.894;8.822;2023-12-20T21:02:29;7.30;99.90
20366;DHT22;10341;49.894;8.822;2023-12-20T21:07:48;7.30;99.90
20366;DHT22;10341;49.894;8.822;2023-12-20T21:13:07;7.30;99.90
20366;DHT22;10341;49.894;8.822;2023-12-20T21:18:26;7.30;99.90
20366;DHT22;10341;49.894;8.822;2023-12-20T21:23:46;7.40;99.90
20366;DHT22;10341;49.894;8.822;2023-12-20T21:29:06;7.40;99.90
20366;DHT22;10341;49.894;8.822;2023-12-20T21:34:27;7.40;99.90
20366;DHT22;10341;49.894;8.822;2023-12-20T21:39:46;7.40;99.90
20366;DHT22;10341;49.894;8.822;2023-12-20T21:45:06;7.40;99.90
20366;DHT22;10341;49.894;8.822;2023-12-20T21:50:26;7.40;99.90
20366;DHT22;10341;49.894;8.822;2023-12-20T21:55:45;7.50;99.90
20366;DHT22;10341;49.894;8.822;2023-12-20T22:01:04;7.50;99.90
20366;DHT22;10341;49.894;8.822;2023-12-20T22:06:23;7.60;99.90
20366;DHT22;10341;49.894;8.822;2023-12-20T22:11:42;7.60;99.90
20366;DHT22;10341;49.894;8.822;2023-12-20T22:17:03;7.60;99.90
20366;DHT22;10341;49.894;8.822;2023-12-20T22:22:22;7.60;99.90
20366;DHT22;10341;49.894;8.822;2023-12-20T22:27:41;7.60;99.90
20366;DHT22;10341;49.894;8.822;2023-12-20T22:33:01;7.60;99.90
20366;DHT22;10341;49.894;8.822;2023-12-20T22:38:20;7.60;99.90
20366;DHT22;10341;49.894;8.822;2023-12-20T22:43:39;7.60;99.90
20366;DHT22;10341;49.894;8.822;2023-12-20T22:48:59;7.50;99.90
20366;DHT22;10341;49.894;8.822;2023-12-20T22:54:19;7.50;99.90
20366;DHT22;10341;49.894;8.822;2023-12-20T22:59:38;7.40;99.90
20366;DHT22;10341;49.894;8.822;2023-12-20T23:04:59;7.40;99.90
20366;DHT22;10341;49.894;8.822;2023-12-20T23:10:18;7.30;99.90
20366;DHT22;10341;49.894;8.822;2023-12-20T23:15:43;7.10;99.90
20366;DHT22;10341;49.894;8.822;2023-12-20T23:21:03;7.10;99.90
20366;DHT22;10341;49.894;8.822;2023-12-20T23:26:23;7.10;99.90
20366;DHT22;10341;49.894;8.822;2023-12-20T23:31:42;7.10;99.90
20366;DHT22;10341;49.894;8.822;2023-12-20T23:37:02;7.10;99.90
20366;DHT22;10341;49.894;8.822;2023-12-20T23:42:21;7.10;99.90
20366;DHT22;10341;49.894;8.822;2023-12-20T23:47:41;7.10;99.90
20366;DHT22;10341;49.894;8.822;2023-12-20T23:53:00;7.10;99.90
20366;DHT22;10341;49.894;8.822;2023-12-20T23:58:19;7.20;99.90
